Main page
METAR-TAF:

METAR-TAF

Airports :

Oil platform

J6-a, Netherlands

latitude: 53-49-27N, longitude: 2-56-43E, elevation: 34 m

Current weather observation

The report was made 20 minutes ago, at 18:25 UTC
Wind 33 kt from the East/Northeast
Temperature 9°C
Humidity 61%
Pressure 1021 hPa
Visibility 10 km or more

METAR: EHJA 191825Z AUTO 07033KT 9999 FEW012/// SCT031/// 09/02 Q1021 W///H///

Time: 19:45 (18:45 UTC)


TAF: missing

Weather observations and forecasts of more than 4000 airports (METAR and TAF reports).

The available stations are represented by yellow and red dots on the map.

Hover mouse over dot to see the name of the station.

Then click to see weather observations and forecasts.

To change the map : click on the green buttons with a black cross to zoom in, on the green button with a dash to zoom out, or on the green arrows for adjacent maps.


METAR-TAF: